sensor_id;sensor_type;location;lat;lon;timestamp;temperature;humidity
48551;DHT22;34397;51.176;6.738;2024-01-15T00:00:39;0.30;89.70
48551;DHT22;34397;51.176;6.738;2024-01-15T00:03:11;0.30;89.70
48551;DHT22;34397;51.176;6.738;2024-01-15T00:05:43;0.30;90.00
48551;DHT22;34397;51.176;6.738;2024-01-15T00:08:15;0.30;90.10
48551;DHT22;34397;51.176;6.738;2024-01-15T00:10:46;0.20;90.30
48551;DHT22;34397;51.176;6.738;2024-01-15T00:13:18;0.20;90.30
48551;DHT22;34397;51.176;6.738;2024-01-15T00:15:51;0.20;90.50
48551;DHT22;34397;51.176;6.738;2024-01-15T00:18:23;0.10;90.60
48551;DHT22;34397;51.176;6.738;2024-01-15T00:20:55;0.10;90.70
48551;DHT22;34397;51.176;6.738;2024-01-15T00:23:26;0.10;90.90
48551;DHT22;34397;51.176;6.738;2024-01-15T00:25:58;0.10;90.90
48551;DHT22;34397;51.176;6.738;2024-01-15T00:28:30;0.00;91.00
48551;DHT22;34397;51.176;6.738;2024-01-15T00:31:04;0.00;91.10
48551;DHT22;34397;51.176;6.738;2024-01-15T00:33:35;0.10;91.10
48551;DHT22;34397;51.176;6.738;2024-01-15T00:36:07;0.10;91.10
48551;DHT22;34397;51.176;6.738;2024-01-15T00:38:39;0.10;91.00
48551;DHT22;34397;51.176;6.738;2024-01-15T00:41:11;0.10;91.10
48551;DHT22;34397;51.176;6.738;2024-01-15T00:43:43;0.10;91.10
48551;DHT22;34397;51.176;6.738;2024-01-15T00:46:16;0.10;91.10
48551;DHT22;34397;51.176;6.738;2024-01-15T00:48:48;0.10;91.20
48551;DHT22;34397;51.176;6.738;2024-01-15T00:51:20;0.10;91.20
48551;DHT22;34397;51.176;6.738;2024-01-15T00:53:52;0.10;91.20
48551;DHT22;34397;51.176;6.738;2024-01-15T00:56:23;0.10;91.10
48551;DHT22;34397;51.176;6.738;2024-01-15T00:58:55;0.20;91.10
48551;DHT22;34397;51.176;6.738;2024-01-15T01:01:28;0.20;91.00
48551;DHT22;34397;51.176;6.738;2024-01-15T01:04:00;0.20;91.00
48551;DHT22;34397;51.176;6.738;2024-01-15T01:06:31;0.20;91.00
48551;DHT22;34397;51.176;6.738;2024-01-15T01:09:04;0.20;91.00
48551;DHT22;34397;51.176;6.738;2024-01-15T01:11:36;0.20;91.00
48551;DHT22;34397;51.176;6.738;2024-01-15T01:14:08;0.20;91.10
48551;DHT22;34397;51.176;6.738;2024-01-15T01:16:41;0.20;91.00
48551;DHT22;34397;51.176;6.738;2024-01-15T01:19:12;0.20;90.90
48551;DHT22;34397;51.176;6.738;2024-01-15T01:21:44;0.30;91.00
48551;DHT22;34397;51.176;6.738;2024-01-15T01:24:16;0.30;90.90
48551;DHT22;34397;51.176;6.738;2024-01-15T01:26:48;0.30;90.90
48551;DHT22;34397;51.176;6.738;2024-01-15T01:29:19;0.30;90.90
48551;DHT22;34397;51.176;6.738;2024-01-15T01:31:52;0.30;90.80
48551;DHT22;34397;51.176;6.738;2024-01-15T01:34:24;0.30;90.80
48551;DHT22;34397;51.176;6.738;2024-01-15T01:36:56;0.30;90.90
48551;DHT22;34397;51.176;6.738;2024-01-15T01:39:28;0.30;90.90
48551;DHT22;34397;51.176;6.738;2024-01-15T01:41:59;0.30;91.00
48551;DHT22;34397;51.176;6.738;2024-01-15T01:44:31;0.30;91.00
48551;DHT22;34397;51.176;6.738;2024-01-15T01:47:04;0.30;90.90
48551;DHT22;34397;51.176;6.738;2024-01-15T01:49:36;0.30;90.90
48551;DHT22;34397;51.176;6.738;2024-01-15T01:52:08;0.40;91.00
48551;DHT22;34397;51.176;6.738;2024-01-15T01:54:41;0.40;90.90
48551;DHT22;34397;51.176;6.738;2024-01-15T01:57:12;0.40;90.80
48551;DHT22;34397;51.176;6.738;2024-01-15T01:59:45;0.40;90.80
48551;DHT22;34397;51.176;6.738;2024-01-15T02:02:18;0.40;90.80
48551;DHT22;34397;51.176;6.738;2024-01-15T02:04:51;0.40;90.80
48551;DHT22;34397;51.176;6.738;2024-01-15T02:07:23;0.40;90.80
48551;DHT22;34397;51.176;6.738;2024-01-15T02:09:55;0.40;90.90
48551;DHT22;34397;51.176;6.738;2024-01-15T02:12:26;0.40;90.90
48551;DHT22;34397;51.176;6.738;2024-01-15T02:14:58;0.40;90.90
48551;DHT22;34397;51.176;6.738;2024-01-15T02:17:31;0.50;90.90
48551;DHT22;34397;51.176;6.738;2024-01-15T02:20:03;0.40;90.90
48551;DHT22;34397;51.176;6.738;2024-01-15T02:22:36;0.50;90.90
48551;DHT22;34397;51.176;6.738;2024-01-15T02:25:09;0.40;90.90
48551;DHT22;34397;51.176;6.738;2024-01-15T02:27:41;0.50;90.90
48551;DHT22;34397;51.176;6.738;2024-01-15T02:30:14;0.50;90.80
48551;DHT22;34397;51.176;6.738;2024-01-15T02:32:47;0.50;90.80
48551;DHT22;34397;51.176;6.738;2024-01-15T02:35:18;0.50;90.70
48551;DHT22;34397;51.176;6.738;2024-01-15T02:37:50;0.50;90.80
48551;DHT22;34397;51.176;6.738;2024-01-15T02:40:23;0.60;90.80
48551;DHT22;34397;51.176;6.738;2024-01-15T02:42:55;0.60;90.70
48551;DHT22;34397;51.176;6.738;2024-01-15T02:45:26;0.60;90.70
48551;DHT22;34397;51.176;6.738;2024-01-15T02:47:58;0.60;90.60
48551;DHT22;34397;51.176;6.738;2024-01-15T02:50:30;0.60;90.50
48551;DHT22;34397;51.176;6.738;2024-01-15T02:53:02;0.60;90.60
48551;DHT22;34397;51.176;6.738;2024-01-15T02:55:35;0.60;90.50
48551;DHT22;34397;51.176;6.738;2024-01-15T02:58:07;0.60;90.50
48551;DHT22;34397;51.176;6.738;2024-01-15T03:00:39;0.60;90.50
48551;DHT22;34397;51.176;6.738;2024-01-15T03:03:10;0.60;90.60
48551;DHT22;34397;51.176;6.738;2024-01-15T03:05:42;0.60;90.50
48551;DHT22;34397;51.176;6.738;2024-01-15T03:08:14;0.60;90.40
48551;DHT22;34397;51.176;6.738;2024-01-15T03:10:47;0.50;90.50
48551;DHT22;34397;51.176;6.738;2024-01-15T03:13:19;0.50;90.60
48551;DHT22;34397;51.176;6.738;2024-01-15T03:15:50;0.60;90.50
48551;DHT22;34397;51.176;6.738;2024-01-15T03:18:22;0.50;90.60
48551;DHT22;34397;51.176;6.738;2024-01-15T03:20:54;0.50;90.60
48551;DHT22;34397;51.176;6.738;2024-01-15T03:23:25;0.60;90.70
48551;DHT22;34397;51.176;6.738;2024-01-15T03:25:58;0.60;90.50
48551;DHT22;34397;51.176;6.738;2024-01-15T03:28:30;0.60;90.50
48551;DHT22;34397;51.176;6.738;2024-01-15T03:31:02;0.60;90.50
48551;DHT22;34397;51.176;6.738;2024-01-15T03:33:34;0.60;90.50
48551;DHT22;34397;51.176;6.738;2024-01-15T03:36:06;0.60;90.50
48551;DHT22;34397;51.176;6.738;2024-01-15T03:38:39;0.70;90.40
48551;DHT22;34397;51.176;6.738;2024-01-15T03:41:13;0.70;90.40
48551;DHT22;34397;51.176;6.738;2024-01-15T03:43:45;0.70;90.30
48551;DHT22;34397;51.176;6.738;2024-01-15T03:46:16;0.70;90.40
48551;DHT22;34397;51.176;6.738;2024-01-15T03:48:48;0.70;90.30
48551;DHT22;34397;51.176;6.738;2024-01-15T03:51:20;0.70;90.20
48551;DHT22;34397;51.176;6.738;2024-01-15T03:53:52;0.70;90.30
48551;DHT22;34397;51.176;6.738;2024-01-15T03:56:25;0.70;90.20
48551;DHT22;34397;51.176;6.738;2024-01-15T03:58:57;0.80;90.10
48551;DHT22;34397;51.176;6.738;2024-01-15T04:01:28;0.80;90.10
48551;DHT22;34397;51.176;6.738;2024-01-15T04:04:00;0.80;90.10
48551;DHT22;34397;51.176;6.738;2024-01-15T04:06:32;0.80;90.10
48551;DHT22;34397;51.176;6.738;2024-01-15T04:09:04;0.80;90.00
48551;DHT22;34397;51.176;6.738;2024-01-15T04:11:37;0.80;90.10
48551;DHT22;34397;51.176;6.738;2024-01-15T04:14:09;0.80;90.00
48551;DHT22;34397;51.176;6.738;2024-01-15T04:16:40;0.80;90.00
48551;DHT22;34397;51.176;6.738;2024-01-15T04:19:12;0.90;89.80
48551;DHT22;34397;51.176;6.738;2024-01-15T04:21:44;0.80;89.80
48551;DHT22;34397;51.176;6.738;2024-01-15T04:24:15;0.80;89.80
48551;DHT22;34397;51.176;6.738;2024-01-15T04:26:49;0.80;89.70
48551;DHT22;34397;51.176;6.738;2024-01-15T04:29:21;0.70;89.50
48551;DHT22;34397;51.176;6.738;2024-01-15T04:31:53;0.80;89.80
48551;DHT22;34397;51.176;6.738;2024-01-15T04:34:24;0.80;89.70
48551;DHT22;34397;51.176;6.738;2024-01-15T04:36:56;0.80;89.80
48551;DHT22;34397;51.176;6.738;2024-01-15T04:39:28;0.80;89.60
48551;DHT22;34397;51.176;6.738;2024-01-15T04:42:02;0.70;89.60
48551;DHT22;34397;51.176;6.738;2024-01-15T04:44:34;0.80;89.90
48551;DHT22;34397;51.176;6.738;2024-01-15T04:47:06;0.80;89.70
48551;DHT22;34397;51.176;6.738;2024-01-15T04:49:38;0.80;89.70
48551;DHT22;34397;51.176;6.738;2024-01-15T04:52:09;0.80;89.70
48551;DHT22;34397;51.176;6.738;2024-01-15T04:54:41;0.80;89.90
48551;DHT22;34397;51.176;6.738;2024-01-15T04:57:14;0.70;89.80
48551;DHT22;34397;51.176;6.738;2024-01-15T04:59:46;0.70;90.00
48551;DHT22;34397;51.176;6.738;2024-01-15T05:02:18;0.70;90.00
48551;DHT22;34397;51.176;6.738;2024-01-15T05:04:49;0.70;90.00
48551;DHT22;34397;51.176;6.738;2024-01-15T05:07:21;0.70;90.00
48551;DHT22;34397;51.176;6.738;2024-01-15T05:09:53;0.70;90.00
48551;DHT22;34397;51.176;6.738;2024-01-15T05:12:26;0.70;90.10
48551;DHT22;34397;51.176;6.738;2024-01-15T05:14:57;0.70;90.00
48551;DHT22;34397;51.176;6.738;2024-01-15T05:17:29;0.80;90.00
48551;DHT22;34397;51.176;6.738;2024-01-15T05:20:01;0.80;90.00
48551;DHT22;34397;51.176;6.738;2024-01-15T05:22:33;0.80;89.70
48551;DHT22;34397;51.176;6.738;2024-01-15T05:25:05;0.80;89.80
48551;DHT22;34397;51.176;6.738;2024-01-15T05:27:39;0.80;89.90
48551;DHT22;34397;51.176;6.738;2024-01-15T05:30:11;0.80;89.80
48551;DHT22;34397;51.176;6.738;2024-01-15T05:32:43;0.90;89.80
48551;DHT22;34397;51.176;6.738;2024-01-15T05:35:15;0.90;89.60
48551;DHT22;34397;51.176;6.738;2024-01-15T05:37:46;0.90;89.50
48551;DHT22;34397;51.176;6.738;2024-01-15T05:40:18;0.80;89.70
48551;DHT22;34397;51.176;6.738;2024-01-15T05:42:51;0.80;89.70
48551;DHT22;34397;51.176;6.738;2024-01-15T05:45:25;0.80;89.80
48551;DHT22;34397;51.176;6.738;2024-01-15T05:47:57;0.80;89.50
48551;DHT22;34397;51.176;6.738;2024-01-15T05:50:29;0.80;89.50
48551;DHT22;34397;51.176;6.738;2024-01-15T05:53:00;0.80;89.70
48551;DHT22;34397;51.176;6.738;2024-01-15T05:55:32;0.80;89.70
48551;DHT22;34397;51.176;6.738;2024-01-15T05:58:05;0.80;89.60
48551;DHT22;34397;51.176;6.738;2024-01-15T06:00:37;0.80;89.40
48551;DHT22;34397;51.176;6.738;2024-01-15T06:03:09;0.80;89.40
48551;DHT22;34397;51.176;6.738;2024-01-15T06:05:41;0.80;89.40
48551;DHT22;34397;51.176;6.738;2024-01-15T06:08:13;0.80;89.50
48551;DHT22;34397;51.176;6.738;2024-01-15T06:10:44;0.80;89.60
48551;DHT22;34397;51.176;6.738;2024-01-15T06:13:18;0.80;89.60
48551;DHT22;34397;51.176;6.738;2024-01-15T06:15:49;0.80;89.60
48551;DHT22;34397;51.176;6.738;2024-01-15T06:18:21;0.90;89.60
48551;DHT22;34397;51.176;6.738;2024-01-15T06:20:53;0.90;89.50
48551;DHT22;34397;51.176;6.738;2024-01-15T06:23:24;0.80;89.50
48551;DHT22;34397;51.176;6.738;2024-01-15T06:25:56;0.90;89.50
48551;DHT22;34397;51.176;6.738;2024-01-15T06:28:29;0.90;89.30
48551;DHT22;34397;51.176;6.738;2024-01-15T06:31:01;0.90;89.20
48551;DHT22;34397;51.176;6.738;2024-01-15T06:33:33;0.90;89.30
48551;DHT22;34397;51.176;6.738;2024-01-15T06:36:05;0.90;89.20
48551;DHT22;34397;51.176;6.738;2024-01-15T06:38:37;0.90;89.50
48551;DHT22;34397;51.176;6.738;2024-01-15T06:41:09;0.80;89.70
48551;DHT22;34397;51.176;6.738;2024-01-15T06:43:42;0.90;90.00
48551;DHT22;34397;51.176;6.738;2024-01-15T06:46:19;0.90;89.90
48551;DHT22;34397;51.176;6.738;2024-01-15T06:48:51;0.80;89.90
48551;DHT22;34397;51.176;6.738;2024-01-15T06:51:23;0.90;89.90
48551;DHT22;34397;51.176;6.738;2024-01-15T06:53:54;0.80;89.90
48551;DHT22;34397;51.176;6.738;2024-01-15T06:56:26;0.80;90.00
48551;DHT22;34397;51.176;6.738;2024-01-15T06:58:59;0.90;90.00
48551;DHT22;34397;51.176;6.738;2024-01-15T07:01:31;0.90;90.10
48551;DHT22;34397;51.176;6.738;2024-01-15T07:04:03;0.90;90.10
48551;DHT22;34397;51.176;6.738;2024-01-15T07:06:35;0.90;90.10
48551;DHT22;34397;51.176;6.738;2024-01-15T07:09:06;0.90;90.00
48551;DHT22;34397;51.176;6.738;2024-01-15T07:11:43;0.90;90.10
48551;DHT22;34397;51.176;6.738;2024-01-15T07:14:17;0.90;90.10
48551;DHT22;34397;51.176;6.738;2024-01-15T07:16:49;0.90;90.10
48551;DHT22;34397;51.176;6.738;2024-01-15T07:19:21;0.90;90.10
48551;DHT22;34397;51.176;6.738;2024-01-15T07:21:52;0.90;90.10
48551;DHT22;34397;51.176;6.738;2024-01-15T07:24:24;0.90;90.20
48551;DHT22;34397;51.176;6.738;2024-01-15T07:26:56;0.90;90.10
48551;DHT22;34397;51.176;6.738;2024-01-15T07:29:29;0.90;90.10
48551;DHT22;34397;51.176;6.738;2024-01-15T07:32:00;0.90;89.80
48551;DHT22;34397;51.176;6.738;2024-01-15T07:34:32;0.90;90.00
48551;DHT22;34397;51.176;6.738;2024-01-15T07:37:04;0.90;90.00
48551;DHT22;34397;51.176;6.738;2024-01-15T07:39:36;0.90;90.00
48551;DHT22;34397;51.176;6.738;2024-01-15T07:42:08;0.90;90.00
48551;DHT22;34397;51.176;6.738;2024-01-15T07:44:41;0.90;90.00
48551;DHT22;34397;51.176;6.738;2024-01-15T07:47:12;1.00;89.80
48551;DHT22;34397;51.176;6.738;2024-01-15T07:49:44;1.00;89.70
48551;DHT22;34397;51.176;6.738;2024-01-15T07:52:16;1.00;89.60
48551;DHT22;34397;51.176;6.738;2024-01-15T07:54:48;1.00;89.80
48551;DHT22;34397;51.176;6.738;2024-01-15T07:57:19;1.00;89.50
48551;DHT22;34397;51.176;6.738;2024-01-15T07:59:52;1.00;89.40
48551;DHT22;34397;51.176;6.738;2024-01-15T08:02:24;1.00;89.40
48551;DHT22;34397;51.176;6.738;2024-01-15T08:04:56;1.00;89.50
48551;DHT22;34397;51.176;6.738;2024-01-15T08:07:29;1.00;89.50
48551;DHT22;34397;51.176;6.738;2024-01-15T08:10:00;1.00;89.50
48551;DHT22;34397;51.176;6.738;2024-01-15T08:12:32;1.00;89.60
48551;DHT22;34397;51.176;6.738;2024-01-15T08:15:05;1.00;89.70
48551;DHT22;34397;51.176;6.738;2024-01-15T08:17:37;1.00;89.20
48551;DHT22;34397;51.176;6.738;2024-01-15T08:20:09;1.00;89.40
48551;DHT22;34397;51.176;6.738;2024-01-15T08:22:42;1.00;89.50
48551;DHT22;34397;51.176;6.738;2024-01-15T08:25:13;1.10;89.60
48551;DHT22;34397;51.176;6.738;2024-01-15T08:27:45;1.00;89.50
48551;DHT22;34397;51.176;6.738;2024-01-15T08:30:18;0.90;90.00
48551;DHT22;34397;51.176;6.738;2024-01-15T08:32:50;0.90;89.90
48551;DHT22;34397;51.176;6.738;2024-01-15T08:35:22;1.00;89.50
48551;DHT22;34397;51.176;6.738;2024-01-15T08:37:55;1.10;89.20
48551;DHT22;34397;51.176;6.738;2024-01-15T08:40:28;1.10;88.90
48551;DHT22;34397;51.176;6.738;2024-01-15T08:43:01;1.00;89.10
48551;DHT22;34397;51.176;6.738;2024-01-15T08:45:34;0.90;89.40
48551;DHT22;34397;51.176;6.738;2024-01-15T08:48:06;0.80;89.70
48551;DHT22;34397;51.176;6.738;2024-01-15T08:50:38;0.80;89.90
48551;DHT22;34397;51.176;6.738;2024-01-15T08:53:09;0.70;90.20
48551;DHT22;34397;51.176;6.738;2024-01-15T08:55:41;0.60;90.40
48551;DHT22;34397;51.176;6.738;2024-01-15T08:58:15;0.50;90.50
48551;DHT22;34397;51.176;6.738;2024-01-15T09:00:48;0.50;90.60
48551;DHT22;34397;51.176;6.738;2024-01-15T09:03:21;0.50;90.70
48551;DHT22;34397;51.176;6.738;2024-01-15T09:05:52;0.50;90.80
48551;DHT22;34397;51.176;6.738;2024-01-15T09:08:25;0.40;90.90
48551;DHT22;34397;51.176;6.738;2024-01-15T09:10:57;0.40;90.90
48551;DHT22;34397;51.176;6.738;2024-01-15T09:13:32;0.40;91.00
48551;DHT22;34397;51.176;6.738;2024-01-15T09:16:06;0.40;91.10
48551;DHT22;34397;51.176;6.738;2024-01-15T09:18:38;0.30;91.10
48551;DHT22;34397;51.176;6.738;2024-01-15T09:21:09;0.30;91.20
48551;DHT22;34397;51.176;6.738;2024-01-15T09:23:41;0.30;91.20
48551;DHT22;34397;51.176;6.738;2024-01-15T09:26:13;0.30;91.30
48551;DHT22;34397;51.176;6.738;2024-01-15T09:28:45;0.30;91.30
48551;DHT22;34397;51.176;6.738;2024-01-15T09:31:18;0.30;91.30
48551;DHT22;34397;51.176;6.738;2024-01-15T09:33:50;0.30;91.30
48551;DHT22;34397;51.176;6.738;2024-01-15T09:36:26;0.30;91.50
48551;DHT22;34397;51.176;6.738;2024-01-15T09:38:58;0.30;91.50
48551;DHT22;34397;51.176;6.738;2024-01-15T09:41:29;0.20;91.50
48551;DHT22;34397;51.176;6.738;2024-01-15T09:44:01;0.30;91.60
48551;DHT22;34397;51.176;6.738;2024-01-15T09:46:35;0.30;91.60
48551;DHT22;34397;51.176;6.738;2024-01-15T09:49:07;0.30;91.60
48551;DHT22;34397;51.176;6.738;2024-01-15T09:51:38;0.30;91.50
48551;DHT22;34397;51.176;6.738;2024-01-15T09:54:10;0.40;91.50
48551;DHT22;34397;51.176;6.738;2024-01-15T09:56:44;0.40;91.40
48551;DHT22;34397;51.176;6.738;2024-01-15T09:59:17;0.40;91.40
48551;DHT22;34397;51.176;6.738;2024-01-15T10:01:51;0.40;91.30
48551;DHT22;34397;51.176;6.738;2024-01-15T10:04:24;0.40;91.20
48551;DHT22;34397;51.176;6.738;2024-01-15T10:06:56;0.40;91.20
48551;DHT22;34397;51.176;6.738;2024-01-15T10:09:29;0.40;91.30
48551;DHT22;34397;51.176;6.738;2024-01-15T10:12:01;0.50;91.40
48551;DHT22;34397;51.176;6.738;2024-01-15T10:14:33;0.50;91.40
48551;DHT22;34397;51.176;6.738;2024-01-15T10:17:12;0.50;91.30
48551;DHT22;34397;51.176;6.738;2024-01-15T10:19:45;0.50;91.40
48551;DHT22;34397;51.176;6.738;2024-01-15T10:22:18;0.50;91.30
48551;DHT22;34397;51.176;6.738;2024-01-15T10:24:49;0.50;91.30
48551;DHT22;34397;51.176;6.738;2024-01-15T10:27:22;0.50;91.20
48551;DHT22;34397;51.176;6.738;2024-01-15T10:29:54;0.50;91.20
48551;DHT22;34397;51.176;6.738;2024-01-15T10:32:27;0.50;91.30
48551;DHT22;34397;51.176;6.738;2024-01-15T10:34:59;0.60;91.10
48551;DHT22;34397;51.176;6.738;2024-01-15T10:37:32;0.50;91.10
48551;DHT22;34397;51.176;6.738;2024-01-15T10:40:04;0.60;91.10
48551;DHT22;34397;51.176;6.738;2024-01-15T10:42:37;0.60;91.10
48551;DHT22;34397;51.176;6.738;2024-01-15T10:45:09;0.60;91.10
48551;DHT22;34397;51.176;6.738;2024-01-15T10:47:42;0.60;91.00
48551;DHT22;34397;51.176;6.738;2024-01-15T10:50:14;0.60;91.10
48551;DHT22;34397;51.176;6.738;2024-01-15T10:52:46;0.70;91.10
48551;DHT22;34397;51.176;6.738;2024-01-15T10:55:18;0.70;91.10
48551;DHT22;34397;51.176;6.738;2024-01-15T10:57:50;0.60;91.00
48551;DHT22;34397;51.176;6.738;2024-01-15T11:00:23;0.70;91.20
48551;DHT22;34397;51.176;6.738;2024-01-15T11:02:57;0.70;91.10
48551;DHT22;34397;51.176;6.738;2024-01-15T11:05:28;0.70;91.00
48551;DHT22;34397;51.176;6.738;2024-01-15T11:08:00;0.70;91.00
48551;DHT22;34397;51.176;6.738;2024-01-15T11:10:39;0.70;91.00
48551;DHT22;34397;51.176;6.738;2024-01-15T11:13:19;0.80;91.10
48551;DHT22;34397;51.176;6.738;2024-01-15T11:15:54;0.70;90.70
48551;DHT22;34397;51.176;6.738;2024-01-15T11:18:31;0.80;90.90
48551;DHT22;34397;51.176;6.738;2024-01-15T11:21:25;0.80;90.50
48551;DHT22;34397;51.176;6.738;2024-01-15T11:23:58;0.80;90.60
48551;DHT22;34397;51.176;6.738;2024-01-15T11:26:31;0.80;90.40
48551;DHT22;34397;51.176;6.738;2024-01-15T11:29:05;0.80;90.30
48551;DHT22;34397;51.176;6.738;2024-01-15T11:37:28;0.90;90.10
48551;DHT22;34397;51.176;6.738;2024-01-15T11:40:01;1.00;90.30
48551;DHT22;34397;51.176;6.738;2024-01-15T11:42:35;1.10;90.40
48551;DHT22;34397;51.176;6.738;2024-01-15T11:45:06;1.10;90.20
48551;DHT22;34397;51.176;6.738;2024-01-15T11:47:54;1.10;89.70
48551;DHT22;34397;51.176;6.738;2024-01-15T11:50:43;1.20;89.80
48551;DHT22;34397;51.176;6.738;2024-01-15T11:53:17;1.30;88.60
48551;DHT22;34397;51.176;6.738;2024-01-15T11:55:52;1.40;89.10
48551;DHT22;34397;51.176;6.738;2024-01-15T11:58:24;1.50;87.90
48551;DHT22;34397;51.176;6.738;2024-01-15T12:00:55;1.50;87.90
48551;DHT22;34397;51.176;6.738;2024-01-15T12:03:27;1.50;87.60
48551;DHT22;34397;51.176;6.738;2024-01-15T12:06:00;1.70;89.50
48551;DHT22;34397;51.176;6.738;2024-01-15T12:08:32;1.90;88.30
48551;DHT22;34397;51.176;6.738;2024-01-15T12:11:05;2.10;86.80
48551;DHT22;34397;51.176;6.738;2024-01-15T12:13:38;2.40;86.80
48551;DHT22;34397;51.176;6.738;2024-01-15T12:16:10;2.50;84.20
48551;DHT22;34397;51.176;6.738;2024-01-15T12:18:42;2.60;84.20
48551;DHT22;34397;51.176;6.738;2024-01-15T12:21:15;2.60;82.80
48551;DHT22;34397;51.176;6.738;2024-01-15T12:23:48;2.50;82.30
48551;DHT22;34397;51.176;6.738;2024-01-15T12:26:22;2.50;83.10
48551;DHT22;34397;51.176;6.738;2024-01-15T12:28:54;2.40;83.90
48551;DHT22;34397;51.176;6.738;2024-01-15T12:31:26;2.30;84.00
48551;DHT22;34397;51.176;6.738;2024-01-15T12:33:58;2.20;84.00
48551;DHT22;34397;51.176;6.738;2024-01-15T12:36:31;2.10;84.20
48551;DHT22;34397;51.176;6.738;2024-01-15T12:39:03;2.10;84.70
48551;DHT22;34397;51.176;6.738;2024-01-15T12:41:35;2.10;85.40
48551;DHT22;34397;51.176;6.738;2024-01-15T12:44:07;2.00;85.00
48551;DHT22;34397;51.176;6.738;2024-01-15T12:46:38;2.00;85.40
48551;DHT22;34397;51.176;6.738;2024-01-15T12:49:10;1.90;85.20
48551;DHT22;34397;51.176;6.738;2024-01-15T12:51:52;1.80;85.60
48551;DHT22;34397;51.176;6.738;2024-01-15T12:54:25;1.90;86.10
48551;DHT22;34397;51.176;6.738;2024-01-15T12:56:57;1.80;84.70
48551;DHT22;34397;51.176;6.738;2024-01-15T12:59:29;1.70;85.10
48551;DHT22;34397;51.176;6.738;2024-01-15T13:02:00;1.70;85.30
48551;DHT22;34397;51.176;6.738;2024-01-15T13:04:32;1.70;85.20
48551;DHT22;34397;51.176;6.738;2024-01-15T13:07:06;1.60;85.30
48551;DHT22;34397;51.176;6.738;2024-01-15T13:09:38;1.60;85.20
48551;DHT22;34397;51.176;6.738;2024-01-15T13:12:09;1.60;85.70
48551;DHT22;34397;51.176;6.738;2024-01-15T13:14:41;1.60;85.30
48551;DHT22;34397;51.176;6.738;2024-01-15T13:17:13;1.50;85.00
48551;DHT22;34397;51.176;6.738;2024-01-15T13:19:45;1.60;85.70
48551;DHT22;34397;51.176;6.738;2024-01-15T13:22:18;1.60;86.00
48551;DHT22;34397;51.176;6.738;2024-01-15T13:24:50;1.60;85.40
48551;DHT22;34397;51.176;6.738;2024-01-15T13:27:23;1.60;85.40
48551;DHT22;34397;51.176;6.738;2024-01-15T13:29:54;1.60;85.60
48551;DHT22;34397;51.176;6.738;2024-01-15T13:32:28;1.60;85.60
48551;DHT22;34397;51.176;6.738;2024-01-15T13:35:00;1.60;85.90
48551;DHT22;34397;51.176;6.738;2024-01-15T13:37:34;1.60;85.40
48551;DHT22;34397;51.176;6.738;2024-01-15T13:40:07;1.60;85.80
48551;DHT22;34397;51.176;6.738;2024-01-15T13:42:46;1.50;85.90
48551;DHT22;34397;51.176;6.738;2024-01-15T13:45:18;1.30;87.00
48551;DHT22;34397;51.176;6.738;2024-01-15T13:47:50;1.10;87.30
48551;DHT22;34397;51.176;6.738;2024-01-15T13:50:22;1.10;88.00
48551;DHT22;34397;51.176;6.738;2024-01-15T13:52:55;1.10;88.50
48551;DHT22;34397;51.176;6.738;2024-01-15T13:55:27;1.10;88.70
48551;DHT22;34397;51.176;6.738;2024-01-15T13:57:59;1.10;88.90
48551;DHT22;34397;51.176;6.738;2024-01-15T14:00:34;1.10;88.70
48551;DHT22;34397;51.176;6.738;2024-01-15T14:03:05;1.10;88.40
48551;DHT22;34397;51.176;6.738;2024-01-15T14:05:37;1.20;88.30
48551;DHT22;34397;51.176;6.738;2024-01-15T14:08:10;1.20;88.20
48551;DHT22;34397;51.176;6.738;2024-01-15T14:10:42;1.20;87.50
48551;DHT22;34397;51.176;6.738;2024-01-15T14:13:14;1.10;87.70
48551;DHT22;34397;51.176;6.738;2024-01-15T14:15:46;1.10;87.70
48551;DHT22;34397;51.176;6.738;2024-01-15T14:18:19;1.20;87.90
48551;DHT22;34397;51.176;6.738;2024-01-15T14:20:50;1.20;87.60
48551;DHT22;34397;51.176;6.738;2024-01-15T14:23:25;1.20;87.60
48551;DHT22;34397;51.176;6.738;2024-01-15T14:25:56;1.20;87.60
48551;DHT22;34397;51.176;6.738;2024-01-15T14:28:28;1.30;87.50
48551;DHT22;34397;51.176;6.738;2024-01-15T14:31:00;1.20;87.30
48551;DHT22;34397;51.176;6.738;2024-01-15T14:33:33;1.20;87.50
48551;DHT22;34397;51.176;6.738;2024-01-15T14:36:05;1.20;87.00
48551;DHT22;34397;51.176;6.738;2024-01-15T14:38:39;1.20;87.30
48551;DHT22;34397;51.176;6.738;2024-01-15T14:41:10;1.10;86.70
48551;DHT22;34397;51.176;6.738;2024-01-15T14:43:42;1.10;86.90
48551;DHT22;34397;51.176;6.738;2024-01-15T14:46:15;1.10;87.10
48551;DHT22;34397;51.176;6.738;2024-01-15T14:48:46;1.10;86.70
48551;DHT22;34397;51.176;6.738;2024-01-15T14:51:19;1.10;86.80
48551;DHT22;34397;51.176;6.738;2024-01-15T14:53:52;1.10;87.00
48551;DHT22;34397;51.176;6.738;2024-01-15T14:56:24;1.00;87.00
48551;DHT22;34397;51.176;6.738;2024-01-15T14:58:55;1.10;87.00
48551;DHT22;34397;51.176;6.738;2024-01-15T15:01:27;1.10;87.10
48551;DHT22;34397;51.176;6.738;2024-01-15T15:04:00;1.10;86.90
48551;DHT22;34397;51.176;6.738;2024-01-15T15:06:32;1.10;87.60
48551;DHT22;34397;51.176;6.738;2024-01-15T15:09:05;1.00;87.80
48551;DHT22;34397;51.176;6.738;2024-01-15T15:11:40;1.00;88.10
48551;DHT22;34397;51.176;6.738;2024-01-15T15:14:11;0.90;88.60
48551;DHT22;34397;51.176;6.738;2024-01-15T15:16:43;0.90;88.90
48551;DHT22;34397;51.176;6.738;2024-01-15T15:19:16;0.90;89.00
48551;DHT22;34397;51.176;6.738;2024-01-15T15:21:49;0.80;89.30
48551;DHT22;34397;51.176;6.738;2024-01-15T15:24:22;0.70;89.80
48551;DHT22;34397;51.176;6.738;2024-01-15T15:26:54;0.70;90.10
48551;DHT22;34397;51.176;6.738;2024-01-15T15:29:25;0.60;90.60
48551;DHT22;34397;51.176;6.738;2024-01-15T15:31:58;0.60;90.50
48551;DHT22;34397;51.176;6.738;2024-01-15T15:34:30;0.50;90.60
48551;DHT22;34397;51.176;6.738;2024-01-15T15:37:02;0.50;90.80
48551;DHT22;34397;51.176;6.738;2024-01-15T15:39:35;0.50;90.80
48551;DHT22;34397;51.176;6.738;2024-01-15T15:42:07;0.40;90.90
48551;DHT22;34397;51.176;6.738;2024-01-15T15:44:39;0.30;91.20
48551;DHT22;34397;51.176;6.738;2024-01-15T15:47:16;0.30;91.40
48551;DHT22;34397;51.176;6.738;2024-01-15T15:49:47;0.30;91.40
48551;DHT22;34397;51.176;6.738;2024-01-15T15:52:19;0.30;91.40
48551;DHT22;34397;51.176;6.738;2024-01-15T15:54:52;0.20;91.10
48551;DHT22;34397;51.176;6.738;2024-01-15T15:57:24;0.30;91.10
48551;DHT22;34397;51.176;6.738;2024-01-15T15:59:57;0.30;90.90
48551;DHT22;34397;51.176;6.738;2024-01-15T16:02:29;0.30;90.70
48551;DHT22;34397;51.176;6.738;2024-01-15T16:05:00;0.30;90.60
48551;DHT22;34397;51.176;6.738;2024-01-15T16:07:35;0.40;90.50
48551;DHT22;34397;51.176;6.738;2024-01-15T16:10:08;0.40;90.20
48551;DHT22;34397;51.176;6.738;2024-01-15T16:12:41;0.40;90.30
48551;DHT22;34397;51.176;6.738;2024-01-15T16:15:19;0.40;90.10
48551;DHT22;34397;51.176;6.738;2024-01-15T16:17:51;0.40;90.20
48551;DHT22;34397;51.176;6.738;2024-01-15T16:20:23;0.40;90.20
48551;DHT22;34397;51.176;6.738;2024-01-15T16:22:55;0.40;90.10